createdAt,value
2019-03-29T00:02:07.526Z,88.59
2019-03-29T00:04:40.030Z,88.94
2019-03-29T00:07:12.448Z,89.08
2019-03-29T00:09:43.312Z,89.15
2019-03-29T00:12:15.420Z,89.15
2019-03-29T00:14:46.213Z,89.08
2019-03-29T00:17:17.924Z,89.15
2019-03-29T00:19:48.985Z,89.01
2019-03-29T00:22:19.379Z,88.92
2019-03-29T00:24:50.248Z,89.02
2019-03-29T00:27:21.023Z,89.15
2019-03-29T00:29:51.786Z,89.20
2019-03-29T00:32:22.583Z,89.22
2019-03-29T00:34:53.084Z,89.15
2019-03-29T00:37:23.915Z,89.35
2019-03-29T00:39:56.489Z,88.76
2019-03-29T00:42:27.334Z,88.97
2019-03-29T00:44:58.142Z,89.13
2019-03-29T00:47:29.380Z,88.81
2019-03-29T00:50:03.584Z,88.90
2019-03-29T00:52:34.333Z,89.02
2019-03-29T00:55:09.621Z,89.09
2019-03-29T00:57:40.430Z,88.99
2019-03-29T01:00:11.371Z,89.22
2019-03-29T01:02:41.935Z,89.24
2019-03-29T01:05:14.283Z,89.12
2019-03-29T01:07:45.209Z,89.23
2019-03-29T01:10:16.907Z,89.20
2019-03-29T01:12:47.751Z,89.33
2019-03-29T01:15:18.577Z,89.17
2019-03-29T01:17:49.127Z,89.15
2019-03-29T01:20:20.006Z,89.16
2019-03-29T01:22:50.748Z,88.82
2019-03-29T01:25:23.427Z,88.86
2019-03-29T01:27:54.167Z,88.67
2019-03-29T01:30:24.847Z,88.68
2019-03-29T01:32:55.645Z,88.71
2019-03-29T01:35:26.516Z,88.85
2019-03-29T01:37:57.183Z,88.72
2019-03-29T01:40:28.059Z,88.74
2019-03-29T01:42:58.915Z,88.49
2019-03-29T01:45:31.400Z,88.60
2019-03-29T01:48:02.195Z,88.63
2019-03-29T01:50:33.111Z,88.56
2019-03-29T01:53:03.854Z,88.27
2019-03-29T01:55:34.791Z,88.30
2019-03-29T01:58:05.564Z,88.47
2019-03-29T02:00:36.600Z,88.68
2019-03-29T02:03:07.336Z,88.68
2019-03-29T02:05:38.229Z,88.71
2019-03-29T02:08:08.973Z,88.59
2019-03-29T02:10:39.729Z,88.59
2019-03-29T02:13:10.702Z,88.48
2019-03-29T02:15:41.580Z,88.33
2019-03-29T02:18:12.310Z,88.39
2019-03-29T02:20:43.346Z,88.57
2019-03-29T02:23:14.022Z,88.68
2019-03-29T02:25:44.828Z,88.77
2019-03-29T02:28:15.621Z,88.57
2019-03-29T02:30:49.197Z,88.47
2019-03-29T02:33:20.816Z,88.56
2019-03-29T02:35:52.055Z,88.60
2019-03-29T02:38:23.746Z,88.49
2019-03-29T02:40:55.157Z,88.28
2019-03-29T02:43:25.941Z,88.45
2019-03-29T02:45:57.851Z,88.30
2019-03-29T02:48:29.336Z,88.39
2019-03-29T02:51:00.070Z,88.22
2019-03-29T02:53:30.591Z,88.23
2019-03-29T02:56:03.972Z,88.37
2019-03-29T02:58:34.935Z,88.48
2019-03-29T03:01:05.893Z,88.65
2019-03-29T03:03:36.727Z,88.48
2019-03-29T03:06:07.548Z,88.71
2019-03-29T03:08:38.440Z,88.73
2019-03-29T03:11:09.355Z,88.51
2019-03-29T03:13:40.306Z,88.67
2019-03-29T03:16:12.886Z,88.53
2019-03-29T03:18:43.999Z,88.58
2019-03-29T03:21:14.896Z,88.69
2019-03-29T03:23:45.747Z,88.71
2019-03-29T03:26:17.608Z,88.53
2019-03-29T03:28:48.465Z,88.67
2019-03-29T03:31:19.469Z,88.58
2019-03-29T03:33:50.339Z,88.80
2019-03-29T03:36:21.179Z,88.68
2019-03-29T03:38:52.083Z,88.75
2019-03-29T03:41:24.597Z,88.77
2019-03-29T03:43:55.298Z,88.77
2019-03-29T03:46:26.789Z,88.87
2019-03-29T03:48:57.261Z,88.86
2019-03-29T03:51:28.251Z,88.97
2019-03-29T03:53:59.157Z,88.66
2019-03-29T03:56:31.465Z,88.66
2019-03-29T03:59:03.155Z,88.94
2019-03-29T04:01:34.071Z,88.61
2019-03-29T04:04:04.908Z,88.91
2019-03-29T04:06:38.481Z,88.73
2019-03-29T04:09:08.923Z,88.73
2019-03-29T04:11:39.530Z,88.77
2019-03-29T04:14:10.371Z,88.90
2019-03-29T04:16:40.798Z,89.08
2019-03-29T04:19:11.271Z,89.12
2019-03-29T04:21:42.059Z,88.73
2019-03-29T04:24:12.993Z,88.82
2019-03-29T04:26:43.930Z,88.69
2019-03-29T04:29:14.389Z,88.74
2019-03-29T04:31:46.728Z,88.65
2019-03-29T04:34:17.562Z,88.40
2019-03-29T04:36:48.705Z,88.16
2019-03-29T04:39:19.540Z,88.21
2019-03-29T04:41:50.280Z,88.29
2019-03-29T04:44:22.545Z,88.08
2019-03-29T04:46:53.433Z,87.83
2019-03-29T04:49:24.348Z,87.90
2019-03-29T04:51:55.185Z,88.05
2019-03-29T04:54:25.639Z,87.95
2019-03-29T04:56:56.442Z,87.89
2019-03-29T04:59:27.345Z,87.84
2019-03-29T05:01:58.202Z,87.86
2019-03-29T05:04:28.982Z,87.64
2019-03-29T05:06:59.792Z,87.41
2019-03-29T05:09:30.506Z,87.63
2019-03-29T05:12:01.464Z,87.42
2019-03-29T05:14:31.973Z,87.08
2019-03-29T05:17:02.812Z,87.11
2019-03-29T05:19:33.647Z,87.40
2019-03-29T05:22:04.626Z,87.05
2019-03-29T05:24:35.418Z,86.89
2019-03-29T05:27:06.376Z,87.11
2019-03-29T05:29:37.364Z,87.34
2019-03-29T05:32:08.255Z,87.17
2019-03-29T05:34:39.116Z,87.17
2019-03-29T05:37:09.907Z,87.17
2019-03-29T05:39:40.795Z,87.31
2019-03-29T05:42:12.010Z,87.25
2019-03-29T05:44:42.849Z,87.21
2019-03-29T05:47:16.267Z,87.12
2019-03-29T05:49:47.082Z,86.87
2019-03-29T05:52:17.744Z,86.64
2019-03-29T05:54:48.756Z,86.96
2019-03-29T05:57:19.531Z,87.07
2019-03-29T05:59:52.728Z,86.66
2019-03-29T06:02:22.810Z,86.75
2019-03-29T06:04:53.732Z,86.75
2019-03-29T06:07:24.483Z,86.71
2019-03-29T06:09:55.429Z,86.49
2019-03-29T06:12:26.402Z,86.23
2019-03-29T06:14:57.323Z,86.01
2019-03-29T06:17:27.947Z,85.91
2019-03-29T06:19:58.767Z,85.57
2019-03-29T06:22:29.603Z,85.56
2019-03-29T06:25:00.445Z,85.74
2019-03-29T06:27:31.354Z,85.67
2019-03-29T06:30:02.090Z,85.48
2019-03-29T06:32:33.222Z,85.75
2019-03-29T06:35:06.471Z,85.51
2019-03-29T06:37:39.420Z,85.22
2019-03-29T06:40:13.450Z,85.02
2019-03-29T06:42:44.286Z,84.99
2019-03-29T06:45:15.223Z,84.73
2019-03-29T06:47:45.713Z,84.90
2019-03-29T06:50:16.465Z,84.71
2019-03-29T06:52:47.056Z,84.73
2019-03-29T06:55:18.265Z,84.86
2019-03-29T06:57:50.587Z,84.44
2019-03-29T07:00:22.836Z,84.72
2019-03-29T07:02:57.014Z,84.39
2019-03-29T07:05:27.857Z,84.80
2019-03-29T07:07:58.773Z,84.54
2019-03-29T07:10:29.311Z,84.08
2019-03-29T07:13:00.276Z,84.10
2019-03-29T07:15:32.196Z,84.32
2019-03-29T07:18:03.055Z,84.43
2019-03-29T07:20:33.920Z,84.52
2019-03-29T07:23:04.933Z,84.84
2019-03-29T07:25:57.249Z,84.47
2019-03-29T07:28:45.885Z,84.41
2019-03-29T07:31:16.817Z,84.15
2019-03-29T07:33:47.767Z,84.16
2019-03-29T07:36:21.333Z,84.25
2019-03-29T07:38:52.513Z,84.09
2019-03-29T07:41:31.765Z,83.53
2019-03-29T07:43:56.021Z,83.42
2019-03-29T07:46:27.975Z,83.78
2019-03-29T07:48:58.911Z,83.73
2019-03-29T07:51:29.871Z,83.62
2019-03-29T07:54:00.371Z,83.55
2019-03-29T07:56:31.082Z,83.54
2019-03-29T07:59:02.089Z,83.50
2019-03-29T08:01:32.885Z,81.94
2019-03-29T08:04:06.592Z,82.13
2019-03-29T08:06:41.594Z,82.20
2019-03-29T08:09:22.579Z,82.50
2019-03-29T08:11:55.116Z,82.23
2019-03-29T08:14:26.393Z,82.26
2019-03-29T08:16:57.256Z,82.00
2019-03-29T08:19:30.425Z,81.40
2019-03-29T08:22:01.297Z,81.18
2019-03-29T08:24:31.713Z,81.36
2019-03-29T08:27:02.516Z,81.50
2019-03-29T08:29:33.495Z,81.79
2019-03-29T08:32:06.255Z,81.57
2019-03-29T08:34:37.284Z,81.31
2019-03-29T08:37:08.155Z,81.05
2019-03-29T08:39:38.947Z,81.46
2019-03-29T08:42:09.456Z,80.92
2019-03-29T08:44:40.223Z,81.26
2019-03-29T08:47:11.051Z,80.93
2019-03-29T08:49:41.433Z,80.82
2019-03-29T08:52:12.459Z,80.84
2019-03-29T08:54:42.998Z,80.58
2019-03-29T08:57:15.325Z,80.70
2019-03-29T08:59:46.166Z,80.64
2019-03-29T09:02:16.999Z,80.20
2019-03-29T09:04:48.370Z,79.68
2019-03-29T09:07:19.167Z,80.00
2019-03-29T09:09:51.887Z,80.09
2019-03-29T09:12:22.899Z,79.93
2019-03-29T09:14:53.967Z,79.89
2019-03-29T09:17:24.573Z,79.98
2019-03-29T09:19:55.351Z,79.84
2019-03-29T09:22:26.065Z,79.62
2019-03-29T09:24:56.997Z,79.08
2019-03-29T09:27:27.940Z,79.44
2019-03-29T09:29:58.657Z,79.49
2019-03-29T09:32:29.573Z,79.64
2019-03-29T09:35:00.458Z,79.44
2019-03-29T09:37:32.969Z,79.23
2019-03-29T09:40:04.561Z,79.79
2019-03-29T09:42:35.463Z,79.00
2019-03-29T09:45:08.579Z,78.79
2019-03-29T09:47:40.697Z,78.37
2019-03-29T09:50:12.633Z,78.25
2019-03-29T09:52:43.666Z,78.28
2019-03-29T09:55:14.494Z,77.85
2019-03-29T09:57:45.628Z,77.65
2019-03-29T10:00:23.481Z,77.54
2019-03-29T10:02:54.233Z,77.76
2019-03-29T10:05:25.176Z,77.24
2019-03-29T10:07:55.951Z,77.34
2019-03-29T10:10:26.820Z,77.08
2019-03-29T10:12:57.286Z,76.67
2019-03-29T10:15:28.154Z,76.15
2019-03-29T10:17:59.050Z,75.72
2019-03-29T10:20:29.913Z,75.76
2019-03-29T10:23:00.967Z,75.19
2019-03-29T10:25:31.776Z,75.26
2019-03-29T10:28:02.688Z,74.29
2019-03-29T10:30:46.425Z,73.22
2019-03-29T10:33:16.189Z,72.80
2019-03-29T10:35:52.127Z,73.08
2019-03-29T10:38:19.460Z,73.25
2019-03-29T10:40:51.789Z,72.96
2019-03-29T10:43:22.626Z,71.64
2019-03-29T10:45:53.461Z,69.89
2019-03-29T10:48:24.298Z,69.99
2019-03-29T10:50:55.019Z,68.68
2019-03-29T10:53:28.576Z,68.68
2019-03-29T10:55:58.478Z,69.05
2019-03-29T10:58:29.791Z,68.24
2019-03-29T11:01:02.073Z,67.11
2019-03-29T11:03:32.783Z,65.59
2019-03-29T11:06:03.526Z,65.61
2019-03-29T11:08:34.374Z,66.02
2019-03-29T11:11:05.723Z,66.16
2019-03-29T11:13:36.482Z,66.37
2019-03-29T11:16:07.009Z,66.33
2019-03-29T11:18:39.602Z,67.06
2019-03-29T11:21:10.399Z,67.65
2019-03-29T11:23:41.442Z,67.47
2019-03-29T11:26:12.274Z,67.55
2019-03-29T11:28:43.111Z,67.57
2019-03-29T11:31:13.952Z,67.91
2019-03-29T11:33:44.780Z,67.25
2019-03-29T11:36:18.718Z,67.22
2019-03-29T11:38:51.044Z,67.25
2019-03-29T11:41:21.813Z,67.80
2019-03-29T11:43:52.826Z,67.88
2019-03-29T11:46:23.694Z,67.62
2019-03-29T11:48:54.594Z,67.55
2019-03-29T11:51:25.350Z,67.52
2019-03-29T11:53:56.237Z,67.36
2019-03-29T11:56:26.970Z,66.34
2019-03-29T11:58:59.399Z,66.85
2019-03-29T12:01:30.126Z,67.24
2019-03-29T12:04:01.020Z,67.02
2019-03-29T12:06:31.803Z,67.24
2019-03-29T12:09:02.678Z,67.58
2019-03-29T12:11:33.590Z,68.14
2019-03-29T12:14:05.234Z,68.03
2019-03-29T12:16:36.185Z,68.31
2019-03-29T12:19:07.122Z,67.90
2019-03-29T12:21:37.942Z,66.57
2019-03-29T12:24:08.412Z,67.64
2019-03-29T12:26:39.121Z,66.43
2019-03-29T12:29:10.161Z,66.71
2019-03-29T12:31:41.130Z,66.06
2019-03-29T12:34:11.670Z,66.50
2019-03-29T12:36:42.107Z,66.76
2019-03-29T12:39:12.982Z,66.83
2019-03-29T12:41:43.819Z,66.59
2019-03-29T12:44:17.525Z,66.39
2019-03-29T12:46:48.271Z,66.01
2019-03-29T12:49:19.275Z,65.55
2019-03-29T12:51:50.032Z,66.17
2019-03-29T12:54:20.867Z,66.24
2019-03-29T12:56:51.256Z,66.12
2019-03-29T12:59:22.097Z,66.08
2019-03-29T13:01:52.866Z,66.11
2019-03-29T13:04:23.604Z,66.01
2019-03-29T13:06:54.437Z,65.66
2019-03-29T13:09:25.389Z,64.74
2019-03-29T13:11:55.907Z,64.43
2019-03-29T13:14:26.743Z,64.84
2019-03-29T13:16:57.580Z,65.88
2019-03-29T13:19:29.940Z,65.96
2019-03-29T13:22:00.321Z,65.64
2019-03-29T13:24:31.239Z,65.13
2019-03-29T13:27:02.082Z,64.87
2019-03-29T13:29:32.560Z,65.65
2019-03-29T13:32:03.889Z,64.13
2019-03-29T13:34:34.787Z,64.73
2019-03-29T13:37:05.774Z,64.65
2019-03-29T13:39:36.657Z,63.79
2019-03-29T13:42:07.508Z,64.41
2019-03-29T13:44:38.392Z,64.74
2019-03-29T13:47:09.260Z,64.84
2019-03-29T13:49:40.112Z,64.92
2019-03-29T13:52:10.943Z,65.43
2019-03-29T13:54:41.780Z,65.18
2019-03-29T13:57:12.243Z,65.61
2019-03-29T13:59:43.012Z,65.92
2019-03-29T14:02:13.784Z,65.48
2019-03-29T14:04:44.507Z,65.62
2019-03-29T14:07:15.334Z,65.75
2019-03-29T14:09:46.212Z,65.72
2019-03-29T14:12:17.152Z,65.35
2019-03-29T14:14:47.950Z,64.90
2019-03-29T14:17:18.786Z,63.95
2019-03-29T14:19:49.640Z,64.30
2019-03-29T14:22:20.086Z,64.96
2019-03-29T14:24:53.896Z,64.73
2019-03-29T14:27:23.059Z,64.60
2019-03-29T14:30:04.361Z,63.95
2019-03-29T14:32:26.359Z,63.98
2019-03-29T14:34:56.851Z,65.16
2019-03-29T14:37:27.233Z,65.21
2019-03-29T14:39:57.960Z,65.24
2019-03-29T14:42:28.452Z,64.98
2019-03-29T14:44:59.310Z,65.15
2019-03-29T14:47:41.407Z,64.93
2019-03-29T14:50:02.855Z,64.74
2019-03-29T14:52:33.817Z,65.26
2019-03-29T14:55:06.956Z,65.44
2019-03-29T14:57:37.695Z,65.25
2019-03-29T15:00:10.493Z,65.82
2019-03-29T15:02:41.309Z,65.82
2019-03-29T15:05:12.349Z,65.62
2019-03-29T15:07:46.795Z,65.09
2019-03-29T15:10:25.899Z,64.72
2019-03-29T15:12:57.047Z,64.80
2019-03-29T15:15:27.980Z,64.59
2019-03-29T15:17:58.716Z,64.80
2019-03-29T15:20:29.566Z,64.28
2019-03-29T15:23:00.300Z,64.03
2019-03-29T15:25:31.144Z,63.59
2019-03-29T15:28:02.018Z,63.76
2019-03-29T15:30:32.903Z,64.15
2019-03-29T15:33:03.764Z,64.06
2019-03-29T15:35:34.800Z,64.21
2019-03-29T15:38:05.519Z,64.68
2019-03-29T15:40:35.942Z,65.06
2019-03-29T15:43:06.687Z,64.76
2019-03-29T15:45:37.535Z,64.74
2019-03-29T15:48:08.911Z,65.16
2019-03-29T15:50:40.733Z,65.03
2019-03-29T15:53:11.503Z,65.37
2019-03-29T15:55:41.915Z,64.93
2019-03-29T15:58:12.759Z,64.80
2019-03-29T16:00:43.659Z,64.41
2019-03-29T16:03:14.403Z,64.89
2019-03-29T16:05:48.284Z,65.17
2019-03-29T16:08:17.803Z,65.11
2019-03-29T16:10:48.673Z,65.45
2019-03-29T16:13:19.207Z,65.50
2019-03-29T16:15:50.165Z,65.40
2019-03-29T16:18:20.953Z,65.42
2019-03-29T16:20:51.922Z,65.70
2019-03-29T16:23:22.417Z,65.41
2019-03-29T16:25:53.160Z,65.68
2019-03-29T16:28:23.974Z,66.09
2019-03-29T16:30:54.926Z,65.72
2019-03-29T16:33:25.874Z,65.99
2019-03-29T16:35:56.762Z,65.82
2019-03-29T16:38:27.541Z,66.25
2019-03-29T16:40:58.478Z,66.25
2019-03-29T16:43:28.997Z,66.86
2019-03-29T16:46:01.504Z,66.24
2019-03-29T16:48:33.768Z,66.06
2019-03-29T16:51:04.590Z,66.67
2019-03-29T16:53:35.343Z,66.55
2019-03-29T16:56:05.926Z,66.82
2019-03-29T16:58:36.854Z,66.92
2019-03-29T17:01:07.845Z,66.94
2019-03-29T17:03:38.718Z,66.19
2019-03-29T17:06:11.359Z,66.98
2019-03-29T17:08:43.720Z,67.22
2019-03-29T17:11:14.596Z,67.22
2019-03-29T17:13:45.453Z,67.16
2019-03-29T17:16:29.473Z,67.35
2019-03-29T17:18:48.564Z,67.48
2019-03-29T17:21:19.446Z,67.40
2019-03-29T17:23:52.653Z,67.39
2019-03-29T17:26:22.905Z,67.53
2019-03-29T17:28:53.694Z,67.52
2019-03-29T17:31:24.522Z,68.09
2019-03-29T17:33:55.336Z,67.80
2019-03-29T17:36:26.170Z,68.51
2019-03-29T17:38:57.032Z,68.51
2019-03-29T17:41:27.918Z,68.32
2019-03-29T17:43:58.817Z,68.10
2019-03-29T17:46:29.696Z,67.62
2019-03-29T17:49:02.576Z,68.28
2019-03-29T17:51:33.514Z,68.27
2019-03-29T17:54:04.698Z,68.34
2019-03-29T17:56:35.494Z,68.08
2019-03-29T17:59:06.289Z,68.71
2019-03-29T18:01:39.270Z,68.42
2019-03-29T18:04:09.726Z,68.64
2019-03-29T18:06:40.596Z,68.83
2019-03-29T18:09:11.358Z,69.25
2019-03-29T18:11:42.284Z,68.89
2019-03-29T18:14:13.190Z,69.10
2019-03-29T18:16:44.036Z,69.50
2019-03-29T18:19:14.864Z,69.48
2019-03-29T18:21:45.751Z,69.29
2019-03-29T18:24:16.706Z,69.11
2019-03-29T18:26:47.528Z,68.82
2019-03-29T18:29:18.294Z,69.11
2019-03-29T18:31:49.027Z,69.34
2019-03-29T18:34:19.896Z,69.43
2019-03-29T18:36:52.078Z,70.06
2019-03-29T18:39:22.959Z,70.07
2019-03-29T18:41:53.888Z,70.10
2019-03-29T18:44:24.767Z,70.08
2019-03-29T18:46:55.567Z,70.28
2019-03-29T18:49:29.248Z,70.51
2019-03-29T18:52:00.039Z,70.48
2019-03-29T18:54:31.234Z,70.61
2019-03-29T18:57:02.106Z,71.11
2019-03-29T18:59:36.086Z,71.68
2019-03-29T19:02:07.072Z,72.06
2019-03-29T19:04:37.882Z,72.18
2019-03-29T19:07:08.647Z,72.18
2019-03-29T19:09:39.080Z,71.78
2019-03-29T19:12:09.914Z,72.41
2019-03-29T19:14:41.776Z,72.49
2019-03-29T19:17:12.793Z,72.54
2019-03-29T19:19:43.517Z,72.09
2019-03-29T19:22:14.444Z,72.31
2019-03-29T19:24:45.303Z,72.55
2019-03-29T19:27:16.346Z,72.65
2019-03-29T19:29:47.268Z,72.94
2019-03-29T19:32:17.729Z,72.83
2019-03-29T19:34:48.431Z,72.92
2019-03-29T19:37:19.171Z,73.15
2019-03-29T19:39:49.953Z,73.09
2019-03-29T19:42:20.740Z,73.15
2019-03-29T19:44:51.479Z,73.30
2019-03-29T19:47:22.409Z,73.47
2019-03-29T19:49:55.297Z,73.53
2019-03-29T19:52:25.837Z,73.65
2019-03-29T19:55:01.181Z,73.60
2019-03-29T19:57:30.806Z,73.47
2019-03-29T20:00:01.639Z,73.82
2019-03-29T20:02:32.635Z,73.87
2019-03-29T20:05:03.155Z,73.99
2019-03-29T20:07:35.481Z,74.02
2019-03-29T20:10:07.659Z,74.48
2019-03-29T20:12:38.476Z,74.23
2019-03-29T20:15:09.419Z,74.36
2019-03-29T20:17:40.264Z,74.31
2019-03-29T20:20:14.395Z,74.69
2019-03-29T20:22:45.209Z,74.61
2019-03-29T20:25:15.832Z,74.58
2019-03-29T20:27:46.337Z,74.63
2019-03-29T20:30:17.227Z,74.58
2019-03-29T20:32:48.348Z,74.53
2019-03-29T20:35:31.750Z,74.65
2019-03-29T20:38:04.155Z,74.81
2019-03-29T20:40:34.981Z,74.83
2019-03-29T20:43:09.004Z,74.92
2019-03-29T20:45:39.087Z,74.91
2019-03-29T20:48:11.602Z,75.04
2019-03-29T20:50:42.419Z,75.10
2019-03-29T20:53:12.912Z,75.04
2019-03-29T20:55:43.873Z,75.14
2019-03-29T20:58:14.704Z,75.26
2019-03-29T21:00:45.219Z,75.26
2019-03-29T21:03:15.966Z,75.11
2019-03-29T21:05:46.808Z,75.74
2019-03-29T21:08:17.743Z,75.41
2019-03-29T21:10:56.080Z,75.47
2019-03-29T21:13:25.723Z,75.53
2019-03-29T21:15:56.675Z,75.44
2019-03-29T21:18:38.891Z,75.26
2019-03-29T21:21:09.687Z,75.46
2019-03-29T21:23:40.537Z,75.30
2019-03-29T21:26:11.346Z,75.56
2019-03-29T21:28:41.927Z,75.47
2019-03-29T21:31:14.507Z,75.62
2019-03-29T21:33:45.975Z,75.63
2019-03-29T21:36:18.159Z,75.69
2019-03-29T21:38:48.995Z,75.71
2019-03-29T21:41:24.218Z,75.99
2019-03-29T21:43:55.311Z,75.83
2019-03-29T21:46:28.771Z,75.86
2019-03-29T21:49:00.273Z,75.77
2019-03-29T21:51:31.663Z,76.07
2019-03-29T21:54:02.575Z,76.11
2019-03-29T21:56:34.833Z,76.20
2019-03-29T21:59:08.812Z,76.16
2019-03-29T22:01:39.763Z,75.96
2019-03-29T22:04:12.357Z,75.91
2019-03-29T22:06:43.507Z,76.23
2019-03-29T22:09:14.301Z,76.60
2019-03-29T22:11:47.910Z,76.10
2019-03-29T22:14:18.735Z,76.03
2019-03-29T22:16:49.733Z,76.16
2019-03-29T22:19:20.811Z,76.35
2019-03-29T22:21:51.665Z,76.50
2019-03-29T22:24:22.596Z,76.37
2019-03-29T22:26:53.481Z,76.33
2019-03-29T22:29:24.409Z,76.66
2019-03-29T22:31:54.987Z,76.67
2019-03-29T22:34:27.480Z,76.61
2019-03-29T22:37:03.040Z,76.88
2019-03-29T22:39:33.965Z,76.85
2019-03-29T22:42:06.410Z,76.89
2019-03-29T22:44:38.413Z,76.99
2019-03-29T22:47:09.251Z,76.81
2019-03-29T22:49:40.078Z,77.27
2019-03-29T22:52:11.041Z,77.31
2019-03-29T22:54:41.925Z,77.27
2019-03-29T22:57:12.886Z,77.07
2019-03-29T22:59:43.769Z,77.21
2019-03-29T23:02:16.359Z,77.35
2019-03-29T23:04:47.207Z,77.30
2019-03-29T23:07:18.101Z,77.22
2019-03-29T23:09:48.938Z,77.39
2019-03-29T23:12:19.754Z,77.43
2019-03-29T23:14:50.507Z,77.53
2019-03-29T23:17:21.341Z,77.63
2019-03-29T23:19:52.214Z,77.39
2019-03-29T23:22:24.159Z,77.76
2019-03-29T23:24:54.972Z,77.67
2019-03-29T23:27:25.922Z,77.69
2019-03-29T23:29:56.889Z,77.86
2019-03-29T23:32:27.615Z,77.66
2019-03-29T23:34:58.556Z,77.57
2019-03-29T23:37:29.090Z,77.61
2019-03-29T23:40:01.184Z,77.66
2019-03-29T23:42:32.030Z,77.71
2019-03-29T23:45:06.392Z,77.82
2019-03-29T23:47:40.951Z,77.66
2019-03-29T23:50:12.121Z,77.88
2019-03-29T23:52:43.971Z,77.70
2019-03-29T23:55:18.023Z,77.70
2019-03-29T23:57:52.016Z,77.67
